Time;durP1;ratioP1;P1;durP2;ratioP2;P2;SDS_P1;SDS_P2;PMS_P1;PMS_P2;Temp;Humidity;BMP_temperature;BMP_pressure;BME280_temperature;BME280_humidity;BME280_pressure;Samples;Min_cycle;Max_cycle;Signal;HPM_P1;HPM_P2
2022/05/05 00:01:34;;;;;;;;;;;12.00;87.30;;;;;;5069119;28;19908;-70
2022/05/05 00:03:59;;;;;;;;;;;12.00;87.40;;;;;;5065307;28;20003;-70
2022/05/05 00:06:28;;;;;;;;;;;12.00;87.70;;;;;;5067746;28;20003;-70
2022/05/05 00:08:54;;;;;;;;;;;11.90;87.90;;;;;;5066792;28;20370;-70
2022/05/05 00:16:48;;;;;;;;;;;11.90;89.00;;;;;;5066428;28;19923;-71
2022/05/05 00:19:14;;;;;;;;;;;11.80;89.20;;;;;;5065356;28;19994;-70
2022/05/05 00:21:39;;;;;;;;;;;11.80;89.60;;;;;;5066026;28;20341;-70
2022/05/05 00:24:05;;;;;;;;;;;11.80;89.90;;;;;;5064872;28;19958;-68
2022/05/05 00:26:31;;;;;;;;;;;11.80;90.00;;;;;;5064072;28;19909;-69
2022/05/05 00:28:57;;;;;;;;;;;11.90;90.10;;;;;;5066683;28;19923;-70
2022/05/05 00:31:22;;;;;;;;;;;11.90;90.30;;;;;;5067780;28;19942;-70
2022/05/05 00:33:48;;;;;;;;;;;11.90;90.30;;;;;;5065999;28;19934;-70
2022/05/05 00:36:14;;;;;;;;;;;11.90;90.40;;;;;;5069831;28;19915;-70
2022/05/05 00:38:40;;;;;;;;;;;11.90;90.40;;;;;;5064964;28;19920;-71
2022/05/05 00:41:05;;;;;;;;;;;12.00;90.50;;;;;;5068639;28;20040;-70
2022/05/05 00:43:33;;;;;;;;;;;11.90;90.60;;;;;;5067136;28;19940;-70
2022/05/05 00:45:59;;;;;;;;;;;12.50;90.80;;;;;;5068099;28;19909;-70
2022/05/05 00:48:26;;;;;;;;;;;12.80;90.20;;;;;;5066220;28;19923;-69
2022/05/05 00:50:52;;;;;;;;;;;12.60;90.40;;;;;;5065318;28;19958;-69
2022/05/05 00:53:17;;;;;;;;;;;12.50;90.70;;;;;;5062392;28;19908;-71
2022/05/05 00:55:43;;;;;;;;;;;12.40;91.10;;;;;;5067608;28;19987;-70
2022/05/05 00:58:09;;;;;;;;;;;12.40;90.80;;;;;;5067066;28;19923;-69
2022/05/05 01:00:34;;;;;;;;;;;12.40;90.80;;;;;;5068013;28;19913;-71
2022/05/05 01:03:00;;;;;;;;;;;12.30;90.70;;;;;;5064379;28;19916;-71
2022/05/05 01:05:29;;;;;;;;;;;12.30;90.70;;;;;;5067478;28;19912;-70
2022/05/05 01:07:58;;;;;;;;;;;12.30;90.70;;;;;;5066058;28;19908;-72
2022/05/05 01:10:25;;;;;;;;;;;12.20;90.60;;;;;;5067795;28;19909;-72
2022/05/05 01:12:51;;;;;;;;;;;12.10;90.60;;;;;;5064063;28;19912;-71
2022/05/05 01:15:16;;;;;;;;;;;12.10;90.70;;;;;;5069022;28;19915;-71
2022/05/05 01:17:42;;;;;;;;;;;12.10;90.80;;;;;;5067056;28;19916;-70
2022/05/05 01:20:11;;;;;;;;;;;12.10;90.80;;;;;;5068326;28;19916;-70
2022/05/05 01:22:37;;;;;;;;;;;12.00;90.90;;;;;;5064083;28;19944;-70
2022/05/05 01:30:31;;;;;;;;;;;12.00;91.10;;;;;;5067006;28;19961;-70
2022/05/05 01:32:57;;;;;;;;;;;12.00;91.10;;;;;;5065998;28;19946;-70
2022/05/05 01:35:22;;;;;;;;;;;12.00;91.10;;;;;;5067187;28;20341;-71
2022/05/05 01:37:48;;;;;;;;;;;12.00;91.20;;;;;;5065618;28;20412;-70
2022/05/05 01:40:14;;;;;;;;;;;12.00;91.30;;;;;;5069314;28;20369;-69
2022/05/05 01:42:40;;;;;;;;;;;12.50;91.50;;;;;;5064160;28;19999;-69
2022/05/05 01:45:06;;;;;;;;;;;12.80;91.10;;;;;;5068052;28;19995;-69
2022/05/05 01:47:31;;;;;;;;;;;13.00;90.70;;;;;;5066925;28;20452;-70
2022/05/05 01:50:00;;;;;;;;;;;13.10;90.70;;;;;;5067116;28;19966;-69
2022/05/05 01:52:27;;;;;;;;;;;13.20;91.10;;;;;;5067796;28;19961;-70
2022/05/05 01:54:52;;;;;;;;;;;12.80;91.30;;;;;;5070802;28;20269;-69
2022/05/05 01:57:18;;;;;;;;;;;12.60;91.70;;;;;;5070610;28;19916;-70
2022/05/05 01:59:43;;;;;;;;;;;12.40;91.90;;;;;;5071017;28;19991;-69
2022/05/05 02:02:09;;;;;;;;;;;12.30;92.10;;;;;;5068560;28;19995;-69
2022/05/05 02:04:34;;;;;;;;;;;12.20;92.20;;;;;;5070015;28;19913;-68
2022/05/05 02:07:00;;;;;;;;;;;12.20;92.40;;;;;;5069529;28;19912;-69
2022/05/05 02:09:26;;;;;;;;;;;12.10;92.40;;;;;;5069498;28;19908;-69
2022/05/05 02:11:53;;;;;;;;;;;12.10;92.60;;;;;;5068510;28;19916;-69
2022/05/05 02:14:19;;;;;;;;;;;12.00;92.70;;;;;;5072237;28;20375;-70
2022/05/05 02:16:45;;;;;;;;;;;12.00;92.70;;;;;;5068008;28;19915;-69
2022/05/05 02:19:10;;;;;;;;;;;11.90;92.80;;;;;;5070175;28;19913;-69
2022/05/05 02:21:36;;;;;;;;;;;11.90;92.90;;;;;;5071921;28;19914;-70
2022/05/05 02:24:01;;;;;;;;;;;11.90;93.00;;;;;;5066325;28;19951;-70
2022/05/05 02:26:27;;;;;;;;;;;11.90;93.10;;;;;;5071767;28;19962;-68
2022/05/05 02:28:53;;;;;;;;;;;11.90;93.10;;;;;;5066534;28;19912;-69
2022/05/05 02:31:18;;;;;;;;;;;12.50;93.40;;;;;;5050266;28;20377;-70
2022/05/05 02:33:44;;;;;;;;;;;12.80;92.80;;;;;;5070255;28;21692;-69
2022/05/05 02:38:55;;;;;;;;;;;12.70;92.50;;;;;;5063579;28;19919;-70
2022/05/05 02:41:20;;;;;;;;;;;12.50;93.10;;;;;;5071885;28;19919;-69
2022/05/05 02:43:46;;;;;;;;;;;12.40;93.00;;;;;;5068990;28;19912;-68
2022/05/05 02:46:12;;;;;;;;;;;12.20;93.00;;;;;;5068322;28;19908;-69
2022/05/05 02:48:37;;;;;;;;;;;12.20;93.00;;;;;;5052014;28;19919;-68
2022/05/05 02:51:03;;;;;;;;;;;12.10;93.00;;;;;;5069491;28;19918;-69
2022/05/05 02:56:16;;;;;;;;;;;12.10;93.10;;;;;;5069958;28;19916;-69
2022/05/05 02:58:42;;;;;;;;;;;12.00;93.10;;;;;;5051116;28;19925;-70
2022/05/05 03:01:08;;;;;;;;;;;12.00;93.00;;;;;;5066269;28;19908;-70
2022/05/05 03:03:34;;;;;;;;;;;12.00;93.10;;;;;;5067463;28;19966;-70
2022/05/05 03:06:00;;;;;;;;;;;12.00;93.00;;;;;;5066549;28;19955;-70
2022/05/05 03:08:25;;;;;;;;;;;12.00;93.00;;;;;;5069275;28;19985;-69
2022/05/05 03:10:51;;;;;;;;;;;12.00;93.00;;;;;;5067399;28;19912;-71
2022/05/05 03:13:16;;;;;;;;;;;12.00;92.90;;;;;;5067730;28;20003;-71
2022/05/05 03:15:42;;;;;;;;;;;12.00;92.90;;;;;;5069578;28;19908;-69
2022/05/05 03:18:08;;;;;;;;;;;12.00;92.90;;;;;;5068054;28;20060;-69
2022/05/05 03:20:33;;;;;;;;;;;12.00;92.90;;;;;;5068576;28;19959;-69
2022/05/05 03:22:59;;;;;;;;;;;11.90;92.90;;;;;;5068847;28;19957;-70
2022/05/05 03:25:24;;;;;;;;;;;11.90;93.00;;;;;;5068801;28;19912;-70
2022/05/05 03:27:50;;;;;;;;;;;11.90;93.00;;;;;;5068814;28;19912;-70
2022/05/05 03:30:15;;;;;;;;;;;11.90;93.00;;;;;;5067015;28;20042;-69
2022/05/05 03:32:42;;;;;;;;;;;11.90;93.10;;;;;;5068785;28;19916;-70
2022/05/05 03:35:08;;;;;;;;;;;11.90;93.20;;;;;;5050870;28;19917;-70
2022/05/05 03:37:33;;;;;;;;;;;11.90;93.30;;;;;;5068319;28;19924;-70
2022/05/05 03:39:59;;;;;;;;;;;11.90;93.30;;;;;;5069469;28;19962;-70
2022/05/05 03:42:25;;;;;;;;;;;11.90;93.30;;;;;;5051228;28;19912;-71
2022/05/05 03:44:51;;;;;;;;;;;11.90;93.40;;;;;;5067345;28;19908;-69
2022/05/05 03:47:16;;;;;;;;;;;11.80;93.30;;;;;;5068141;28;20419;-71
2022/05/05 03:49:43;;;;;;;;;;;11.80;93.40;;;;;;5067373;28;19962;-69
2022/05/05 03:52:08;;;;;;;;;;;11.80;93.40;;;;;;5052582;28;19916;-68
2022/05/05 03:54:34;;;;;;;;;;;11.80;93.40;;;;;;5065480;28;19962;-70
2022/05/05 03:56:59;;;;;;;;;;;11.80;93.40;;;;;;5069820;28;19912;-70
2022/05/05 03:59:25;;;;;;;;;;;11.80;93.30;;;;;;5051237;28;19947;-70
2022/05/05 04:01:50;;;;;;;;;;;11.80;93.30;;;;;;5066223;28;19919;-70
2022/05/05 04:04:16;;;;;;;;;;;11.80;93.30;;;;;;5060058;28;20320;-70
2022/05/05 04:06:42;;;;;;;;;;;11.80;93.30;;;;;;5067429;28;20277;-69
2022/05/05 04:09:08;;;;;;;;;;;11.80;93.40;;;;;;5062250;28;19915;-69
2022/05/05 04:11:34;;;;;;;;;;;11.80;93.50;;;;;;5063561;28;19919;-69
2022/05/05 04:13:59;;;;;;;;;;;11.80;93.40;;;;;;5067738;28;19919;-71
2022/05/05 04:16:25;;;;;;;;;;;11.80;93.40;;;;;;5069169;28;19908;-70
2022/05/05 04:18:51;;;;;;;;;;;11.80;93.40;;;;;;5067519;28;19959;-70
2022/05/05 04:21:16;;;;;;;;;;;11.70;93.40;;;;;;5068872;28;19970;-71
2022/05/05 04:23:42;;;;;;;;;;;11.70;93.40;;;;;;5064697;28;19908;-70
2022/05/05 04:26:12;;;;;;;;;;;11.70;93.50;;;;;;5067435;28;19968;-72
2022/05/05 04:28:38;;;;;;;;;;;11.70;93.50;;;;;;5066643;28;19917;-71
2022/05/05 04:31:03;;;;;;;;;;;11.70;93.50;;;;;;5063140;28;20377;-68
2022/05/05 04:33:29;;;;;;;;;;;11.70;93.50;;;;;;5051255;28;19985;-70
2022/05/05 04:35:54;;;;;;;;;;;11.70;93.50;;;;;;5064674;28;20444;-68
2022/05/05 04:38:20;;;;;;;;;;;11.80;93.60;;;;;;5059780;28;19912;-70
2022/05/05 04:40:46;;;;;;;;;;;11.70;93.60;;;;;;5061773;28;19919;-68
2022/05/05 04:43:11;;;;;;;;;;;11.80;93.60;;;;;;5064502;28;19915;-69
2022/05/05 04:45:37;;;;;;;;;;;11.80;93.60;;;;;;5061126;28;19912;-70
2022/05/05 04:48:02;;;;;;;;;;;11.80;93.60;;;;;;5042609;28;19927;-68
2022/05/05 04:50:28;;;;;;;;;;;11.80;93.60;;;;;;5063156;28;19915;-69
2022/05/05 04:52:53;;;;;;;;;;;11.80;93.60;;;;;;5065262;28;19909;-70
2022/05/05 04:55:19;;;;;;;;;;;11.80;93.60;;;;;;5066563;28;19961;-68
2022/05/05 04:57:45;;;;;;;;;;;11.80;93.70;;;;;;5059401;28;20013;-68
2022/05/05 05:00:10;;;;;;;;;;;11.90;93.70;;;;;;5065658;28;19962;-66
2022/05/05 05:02:36;;;;;;;;;;;11.90;93.70;;;;;;5061709;28;20397;-68
2022/05/05 05:05:02;;;;;;;;;;;11.90;93.80;;;;;;5068282;28;20022;-69
2022/05/05 05:07:27;;;;;;;;;;;11.90;93.80;;;;;;5066212;28;19916;-70
2022/05/05 05:09:53;;;;;;;;;;;11.90;93.90;;;;;;5064949;28;20327;-68
2022/05/05 05:12:19;;;;;;;;;;;11.90;93.90;;;;;;5065861;28;19938;-69
2022/05/05 05:14:44;;;;;;;;;;;11.90;94.10;;;;;;5065739;28;19962;-69
2022/05/05 05:17:10;;;;;;;;;;;11.90;94.30;;;;;;5049044;28;20006;-68
2022/05/05 05:19:35;;;;;;;;;;;11.90;94.00;;;;;;5068520;28;19958;-70
2022/05/05 05:22:01;;;;;;;;;;;12.00;94.10;;;;;;5064939;28;20381;-69
2022/05/05 05:24:26;;;;;;;;;;;12.00;94.10;;;;;;5067129;28;20345;-69
2022/05/05 05:26:52;;;;;;;;;;;12.00;94.10;;;;;;5066398;28;19912;-70
2022/05/05 05:29:17;;;;;;;;;;;12.10;94.20;;;;;;5072046;28;19912;-68
2022/05/05 05:31:43;;;;;;;;;;;12.10;94.20;;;;;;5066821;28;19974;-69
2022/05/05 05:34:08;;;;;;;;;;;12.10;94.20;;;;;;5049488;28;20421;-68
2022/05/05 05:36:34;;;;;;;;;;;12.20;94.60;;;;;;5069486;28;19908;-68
2022/05/05 05:39:00;;;;;;;;;;;12.20;94.60;;;;;;5072432;28;20509;-69
2022/05/05 05:41:26;;;;;;;;;;;12.20;94.20;;;;;;5053103;28;19930;-69
2022/05/05 05:43:51;;;;;;;;;;;12.30;94.20;;;;;;5072549;28;19912;-70
2022/05/05 05:46:17;;;;;;;;;;;12.30;94.10;;;;;;5062584;28;19955;-70
2022/05/05 05:48:42;;;;;;;;;;;12.30;94.10;;;;;;5053617;28;20281;-68
2022/05/05 05:51:08;;;;;;;;;;;12.30;94.00;;;;;;5069612;28;19922;-70
2022/05/05 05:53:33;;;;;;;;;;;12.30;94.00;;;;;;5071632;28;19912;-70
2022/05/05 05:55:59;;;;;;;;;;;12.40;94.00;;;;;;5070331;28;19908;-69
2022/05/05 05:58:24;;;;;;;;;;;12.40;94.00;;;;;;5067872;28;20002;-69
2022/05/05 06:00:50;;;;;;;;;;;12.40;93.90;;;;;;5066932;28;19970;-67
2022/05/05 06:06:00;;;;;;;;;;;12.50;93.80;;;;;;5070238;28;20426;-69
2022/05/05 06:08:26;;;;;;;;;;;12.60;93.80;;;;;;5067825;28;19916;-71
2022/05/05 06:10:51;;;;;;;;;;;12.60;93.70;;;;;;5065555;28;19959;-68
2022/05/05 06:13:17;;;;;;;;;;;12.60;93.60;;;;;;5069515;28;20300;-70
2022/05/05 06:15:42;;;;;;;;;;;12.70;93.50;;;;;;5069183;28;19919;-69
2022/05/05 06:18:08;;;;;;;;;;;12.60;93.40;;;;;;5068462;28;19920;-69
2022/05/05 06:20:33;;;;;;;;;;;12.70;93.40;;;;;;5069893;28;20280;-68
2022/05/05 06:23:00;;;;;;;;;;;12.70;93.30;;;;;;5069071;28;20257;-67
2022/05/05 06:25:26;;;;;;;;;;;12.80;93.30;;;;;;5065324;28;19923;-70
2022/05/05 06:27:51;;;;;;;;;;;12.80;93.30;;;;;;5060936;28;20334;-68
2022/05/05 06:30:17;;;;;;;;;;;12.80;93.20;;;;;;5051390;28;19944;-70
2022/05/05 06:32:44;;;;;;;;;;;12.90;93.20;;;;;;5067197;28;19924;-69
2022/05/05 06:35:10;;;;;;;;;;;12.90;93.20;;;;;;5068096;28;20003;-70
2022/05/05 06:37:36;;;;;;;;;;;13.00;93.30;;;;;;5065644;28;19928;-70
2022/05/05 06:40:02;;;;;;;;;;;13.00;93.20;;;;;;5069976;28;19973;-68
2022/05/05 06:42:28;;;;;;;;;;;13.10;93.20;;;;;;5052296;28;20389;-69
2022/05/05 06:44:54;;;;;;;;;;;13.10;93.10;;;;;;5070568;28;19913;-69
2022/05/05 06:47:20;;;;;;;;;;;13.20;93.10;;;;;;5062854;28;20369;-68
2022/05/05 06:49:45;;;;;;;;;;;13.20;93.00;;;;;;5069254;28;19915;-68
2022/05/05 06:52:11;;;;;;;;;;;13.20;92.90;;;;;;5068409;28;20387;-69
2022/05/05 06:54:36;;;;;;;;;;;13.20;92.90;;;;;;5069735;28;19908;-68
2022/05/05 06:57:02;;;;;;;;;;;13.30;92.90;;;;;;5065256;28;19908;-69
2022/05/05 06:59:28;;;;;;;;;;;13.30;92.80;;;;;;5069641;28;19995;-69
2022/05/05 07:01:54;;;;;;;;;;;14.00;91.50;;;;;;5061899;28;20285;-67
2022/05/05 07:07:04;;;;;;;;;;;14.70;90.00;;;;;;5063811;28;20033;-68
2022/05/05 07:12:14;;;;;;;;;;;14.60;90.60;;;;;;5066063;28;20003;-68
2022/05/05 07:14:40;;;;;;;;;;;14.30;91.10;;;;;;5069557;28;20440;-68
2022/05/05 07:17:06;;;;;;;;;;;14.30;91.30;;;;;;5068731;28;20050;-69
2022/05/05 07:19:31;;;;;;;;;;;14.20;91.30;;;;;;5062601;28;20262;-68
2022/05/05 07:21:57;;;;;;;;;;;14.30;91.40;;;;;;5058218;28;19947;-69
2022/05/05 07:24:23;;;;;;;;;;;14.30;91.40;;;;;;5070643;28;19908;-68
2022/05/05 07:26:48;;;;;;;;;;;14.30;91.40;;;;;;5067382;28;19919;-69
2022/05/05 07:29:15;;;;;;;;;;;14.30;91.50;;;;;;5070357;28;19916;-68
2022/05/05 07:31:41;;;;;;;;;;;14.30;91.40;;;;;;5065533;28;19924;-68
2022/05/05 07:34:07;;;;;;;;;;;14.40;91.40;;;;;;5065315;28;19913;-66
2022/05/05 07:36:33;;;;;;;;;;;14.40;91.50;;;;;;5069024;28;19961;-67
2022/05/05 07:38:58;;;;;;;;;;;14.50;91.50;;;;;;5065947;28;19912;-68
2022/05/05 07:41:24;;;;;;;;;;;14.60;91.50;;;;;;5069820;28;19964;-69
2022/05/05 07:43:53;;;;;;;;;;;14.60;91.50;;;;;;5067965;28;23052;-70
2022/05/05 07:46:18;;;;;;;;;;;14.60;91.50;;;;;;5068128;28;20383;-70
2022/05/05 07:48:44;;;;;;;;;;;14.70;91.60;;;;;;5064367;28;19920;-69
2022/05/05 07:51:10;;;;;;;;;;;14.70;91.70;;;;;;5068384;28;19911;-66
2022/05/05 07:53:36;;;;;;;;;;;14.70;92.00;;;;;;5065905;28;20360;-69
2022/05/05 07:56:01;;;;;;;;;;;14.70;92.10;;;;;;5067747;28;19912;-68
2022/05/05 07:58:27;;;;;;;;;;;14.80;92.30;;;;;;5066326;28;19916;-68
2022/05/05 08:00:52;;;;;;;;;;;14.80;92.40;;;;;;5064619;28;20288;-65
2022/05/05 08:03:18;;;;;;;;;;;14.90;92.50;;;;;;5068174;28;19926;-63
2022/05/05 08:05:44;;;;;;;;;;;14.90;92.60;;;;;;5065458;28;19913;-68
2022/05/05 08:08:10;;;;;;;;;;;15.10;92.70;;;;;;5066706;28;19912;-68
2022/05/05 08:10:35;;;;;;;;;;;15.10;92.80;;;;;;5067729;28;20344;-68
2022/05/05 08:13:01;;;;;;;;;;;15.20;92.80;;;;;;5068500;28;19919;-69
2022/05/05 08:15:26;;;;;;;;;;;15.30;92.90;;;;;;5067639;28;19912;-69
2022/05/05 08:17:52;;;;;;;;;;;15.50;93.00;;;;;;5066612;28;21494;-68
2022/05/05 08:20:17;;;;;;;;;;;16.40;92.20;;;;;;5067200;28;19927;-69
2022/05/05 08:22:43;;;;;;;;;;;17.00;90.80;;;;;;5066784;28;19916;-68
2022/05/05 08:30:38;;;;;;;;;;;17.90;87.30;;;;;;5065775;28;19939;-69
2022/05/05 08:33:04;;;;;;;55.25;34.83;;;18.10;86.00;;;;;;5059053;28;20434;-70
2022/05/05 08:35:33;;;;;;;49.90;32.17;;;18.30;84.80;;;;;;5062722;28;20397;-65
2022/05/05 08:37:59;;;;;;;53.67;32.77;;;18.60;84.00;;;;;;5064841;28;20772;-64
2022/05/05 08:40:27;;;;;;;50.85;31.63;;;18.90;84.20;;;;;;5063142;28;20405;-65
2022/05/05 08:42:53;;;;;;;55.27;33.67;;;19.20;81.50;;;;;;5064663;28;20888;-65
2022/05/05 08:45:20;;;;;;;50.95;32.83;;;19.40;79.60;;;;;;5064589;28;20426;-66
2022/05/05 08:47:47;;;;;;;55.45;33.65;;;19.50;79.10;;;;;;5065194;28;20461;-66
2022/05/05 08:50:14;;;;;;;55.23;34.27;;;19.60;79.60;;;;;;5063885;28;20922;-66
2022/05/05 08:52:48;;;;;;;52.07;33.13;;;19.70;78.70;;;;;;5065945;28;20411;-66
2022/05/05 08:55:15;;;;;;;;;;;19.90;76.70;;;;;;5064172;28;20439;-66
2022/05/05 08:57:41;;;;;;;;;;;19.90;75.90;;;;;;5067268;28;19920;-66
2022/05/05 09:00:06;;;;;;;;;;;20.10;75.70;;;;;;5067776;28;19912;-65
2022/05/05 09:02:32;;;;;;;53.43;34.13;;;20.20;76.00;;;;;;5065546;28;20418;-65
2022/05/05 09:04:58;;;;;;;51.60;33.13;;;20.50;73.90;;;;;;5065587;28;20427;-66
2022/05/05 09:07:52;;;;;;;53.53;34.30;;;20.70;72.70;;;;;;5064322;28;20959;-65
2022/05/05 09:10:20;;;;;;;54.10;33.72;;;20.80;71.30;;;;;;5046546;28;20425;-65
2022/05/05 09:12:57;;;;;;;53.88;34.72;;;20.90;70.30;;;;;;5066434;28;20396;-67
2022/05/05 09:15:30;;;;;;;52.00;34.42;;;20.90;70.90;;;;;;5065625;28;20415;-65
2022/05/05 09:18:15;;;;;;;53.67;34.55;;;20.90;70.40;;;;;;5063133;28;20918;-66
2022/05/05 09:20:42;;;;;;;53.78;35.40;;;21.00;71.00;;;;;;5065402;28;20764;-66
2022/05/05 09:23:08;;;;;;;56.33;34.30;;;20.80;72.20;;;;;;5066913;28;20403;-66
2022/05/05 09:25:45;;;;;;;57.95;35.28;;;20.80;72.40;;;;;;5062749;28;20890;-67
2022/05/05 09:28:22;;;;;;;60.33;35.95;;;20.80;70.90;;;;;;5065604;28;20414;-67
2022/05/05 09:30:52;;;;;;;53.25;34.03;;;20.80;72.00;;;;;;5061896;28;20436;-66
2022/05/05 09:33:35;;;;;;;54.75;32.85;;;20.90;72.80;;;;;;5064483;28;20474;-65
2022/05/05 09:36:03;;;;;;;56.20;36.95;;;21.20;70.00;;;;;;5063947;28;20419;-67
2022/05/05 09:38:51;;;;;;;53.20;33.87;;;21.50;71.10;;;;;;5065318;28;20407;-65
2022/05/05 09:41:24;;;;;;;52.17;33.88;;;21.80;68.00;;;;;;5065699;28;20397;-66
2022/05/05 09:43:53;;;;;;;54.80;32.77;;;22.10;66.40;;;;;;5064730;28;23073;-66
2022/05/05 09:46:32;;;;;;;57.55;34.90;;;22.30;65.00;;;;;;5063406;28;20408;-67
2022/05/05 09:49:03;;;;;;;52.00;32.97;;;22.60;64.80;;;;;;5065377;28;20916;-71
2022/05/05 09:51:43;;;;;;;52.20;32.65;;;22.70;64.00;;;;;;5067838;28;20408;-69
2022/05/05 09:57:40;;;;;;;51.22;32.70;;;22.70;62.50;;;;;;5065352;28;20419;-69
2022/05/05 10:05:52;;;;;;;51.47;31.98;;;22.30;64.40;;;;;;5065205;28;20457;-68
2022/05/05 10:08:40;;;;;;;53.35;32.30;;;22.30;63.60;;;;;;5065932;28;20410;-69
2022/05/05 10:11:09;;;;;;;50.40;31.13;;;22.10;63.70;;;;;;5067242;28;20407;-69
2022/05/05 10:13:37;;;;;;;57.83;34.38;;;21.90;64.80;;;;;;5064399;28;20421;-68
2022/05/05 10:16:07;;;;;;;55.13;32.88;;;21.80;64.90;;;;;;5085077;28;20399;-69
2022/05/05 10:18:39;;;;;;;51.33;32.97;;;21.60;65.80;;;;;;5068793;28;20599;-69
2022/05/05 10:21:14;;;;;;;51.73;33.63;;;21.50;66.60;;;;;;5051215;28;20482;-70
2022/05/05 10:23:56;;;;;;;56.58;33.25;;;21.50;66.70;;;;;;5068185;28;20901;-68
2022/05/05 10:26:26;;;;;;;46.92;30.40;;;21.50;66.20;;;;;;5067820;28;20419;-69
2022/05/05 10:28:52;;;;;;;46.58;31.35;;;21.40;65.50;;;;;;5068682;28;21334;-68
2022/05/05 10:31:30;;;;;;;51.65;31.88;;;21.30;66.40;;;;;;5069611;28;20458;-68
2022/05/05 10:34:07;;;;;;;53.38;32.75;;;21.20;66.90;;;;;;5065279;28;20419;-69
2022/05/05 10:36:36;;;;;;;47.83;31.50;;;21.20;67.30;;;;;;5066520;28;20494;-69
2022/05/05 10:39:22;;;;;;;46.35;30.05;;;21.20;67.60;;;;;;5066697;28;20492;-69
2022/05/05 10:41:51;;;;;;;46.72;29.95;;;21.10;66.40;;;;;;5070287;28;20415;-68
2022/05/05 10:44:16;;;;;;;47.27;30.07;;;21.10;66.50;;;;;;5064446;28;20423;-69
2022/05/05 10:46:55;;;;;;;45.03;29.48;;;21.10;66.50;;;;;;5068287;28;20469;-68
2022/05/05 10:49:40;;;;;;;57.03;35.57;;;21.10;66.10;;;;;;5067263;28;20776;-69
2022/05/05 10:52:12;;;;;;;59.13;36.37;;;21.20;67.40;;;;;;5069423;28;20414;-68
2022/05/05 10:54:48;;;;;;;60.97;39.47;;;21.20;68.60;;;;;;5066780;28;20419;-69
2022/05/05 10:57:23;;;;;;;59.40;37.50;;;21.30;69.10;;;;;;5068419;28;20748;-67
2022/05/05 11:00:10;;;;;;;57.08;36.45;;;21.30;69.20;;;;;;5049191;28;20506;-67
2022/05/05 11:02:37;;;;;;;58.83;35.55;;;21.40;68.10;;;;;;5063536;28;20418;-69
2022/05/05 11:05:36;;;;;;;60.20;36.67;;;21.50;67.60;;;;;;5067269;28;20498;-69
2022/05/05 11:08:14;;;;;;;53.30;35.40;;;21.50;68.50;;;;;;5064229;28;20769;-69
2022/05/05 11:13:44;;;;;;;51.40;33.30;;;21.50;67.50;;;;;;5068056;28;20423;-70
2022/05/05 11:22:28;;;;;;;51.30;32.50;;;21.30;67.10;;;;;;5066442;28;20753;-68
2022/05/05 11:24:54;;;;;;;46.38;31.50;;;21.30;67.20;;;;;;5066026;28;20418;-68
2022/05/05 11:27:24;;;;;;;44.90;28.90;;;21.30;67.50;;;;;;5064631;28;20407;-67
2022/05/05 11:29:51;;;;;;;46.05;29.30;;;21.30;65.20;;;;;;5051932;28;20498;-68
2022/05/05 11:32:18;;;;;;;46.00;28.13;;;21.30;65.00;;;;;;5067300;28;20438;-69
2022/05/05 11:34:45;;;;;;;43.03;28.23;;;21.30;65.00;;;;;;5066484;28;20487;-70
2022/05/05 11:37:11;;;;;;;39.58;25.35;;;21.20;65.00;;;;;;5066476;28;20415;-68
2022/05/05 11:39:38;;;;;;;35.65;24.48;;;21.10;64.30;;;;;;5068857;28;20426;-69
2022/05/05 11:42:04;;;;;;;38.22;24.67;;;21.20;65.00;;;;;;5067053;28;20446;-68
2022/05/05 11:44:35;;;;;;;37.35;24.83;;;21.20;65.40;;;;;;5067022;28;20423;-69
2022/05/05 11:47:09;;;;;;;34.30;23.88;;;21.20;64.70;;;;;;5065568;28;20407;-67
2022/05/05 11:49:35;;;;;;;38.63;26.58;;;21.40;65.10;;;;;;5067204;28;20792;-68
2022/05/05 11:52:01;;;;;;;41.65;24.08;;;21.40;64.90;;;;;;5065482;28;20415;-69
2022/05/05 11:54:32;;;;;;;32.50;21.93;;;21.40;64.40;;;;;;5068206;28;20799;-69
2022/05/05 11:56:59;;;;;;;24.33;17.85;;;21.70;63.60;;;;;;5050651;28;20834;-69
2022/05/05 12:02:20;;;;;;;29.70;19.98;;;22.30;60.00;;;;;;5066698;28;20545;-69
2022/05/05 12:04:49;;;;;;;31.67;20.33;;;22.70;59.00;;;;;;5065054;28;20753;-69
2022/05/05 12:07:23;;;;;;;29.90;20.35;;;22.90;57.50;;;;;;5064441;28;20979;-68
2022/05/05 12:09:54;;;;;;;28.73;18.83;;;22.90;57.00;;;;;;5066431;28;20973;-69
2022/05/05 12:12:22;;;;;;;27.27;18.33;;;23.00;55.70;;;;;;5067115;28;20418;-70
2022/05/05 12:14:50;;;;;;;25.73;18.48;;;23.00;56.00;;;;;;5066210;28;20411;-68
2022/05/05 12:17:21;;;;;;;27.50;18.57;;;22.90;55.50;;;;;;5066911;28;20419;-69
2022/05/05 12:19:52;;;;;;;30.48;20.98;;;22.90;56.10;;;;;;5065555;28;20419;-69
2022/05/05 12:22:27;;;;;;;30.83;20.25;;;22.90;56.50;;;;;;5064990;28;20396;-68
2022/05/05 12:24:53;;;;;;;32.50;18.93;;;22.80;57.00;;;;;;5065471;28;20486;-68
2022/05/05 12:27:23;;;;;;;28.33;18.63;;;22.90;56.80;;;;;;5064996;28;20423;-68
2022/05/05 12:29:49;;;;;;;24.80;16.30;;;23.10;56.00;;;;;;5048107;28;20792;-69
2022/05/05 12:32:18;;;;;;;24.35;15.85;;;23.30;54.60;;;;;;5062543;28;20415;-69
2022/05/05 12:34:45;;;;;;;24.83;17.03;;;23.50;54.20;;;;;;5066263;28;20404;-69
2022/05/05 12:37:11;;;;;;;26.73;16.98;;;23.70;54.60;;;;;;5065551;28;20468;-69
2022/05/05 12:39:58;;;;;;;25.10;17.33;;;24.10;53.20;;;;;;5067245;28;20411;-70
2022/05/05 12:42:48;;;;;;;21.27;15.35;;;24.40;52.50;;;;;;5065407;28;20443;-70
2022/05/05 12:45:15;;;;;;;24.08;17.35;;;24.60;51.80;;;;;;5067393;28;20396;-69
2022/05/05 12:47:46;;;;;;;31.90;19.03;;;24.80;51.80;;;;;;5065879;28;20419;-70
2022/05/05 12:50:31;;;;;;;27.67;18.27;;;25.00;51.70;;;;;;5062896;28;20443;-71
2022/05/05 13:01:21;;;;;;;26.63;18.10;;;25.10;50.90;;;;;;5063668;28;20403;-71
2022/05/05 13:03:47;;;;;;;25.60;17.73;;;25.20;49.80;;;;;;5066412;28;20427;-69
2022/05/05 13:06:13;;;;;;;29.50;18.80;;;25.20;49.90;;;;;;5067365;28;20403;-70
2022/05/05 13:08:38;;;;;;;31.33;20.23;;;25.30;50.30;;;;;;5064541;28;20419;-69
2022/05/05 13:11:04;;;;;;;28.43;17.63;;;25.30;50.40;;;;;;5059188;28;20427;-69
2022/05/05 13:13:29;;;;;;;28.13;18.03;;;25.30;50.50;;;;;;5066534;28;20408;-69
2022/05/05 13:15:55;;;;;;;29.93;19.20;;;25.30;50.30;;;;;;5065381;28;20827;-69
2022/05/05 13:18:21;;;;;;;35.57;22.10;;;25.20;50.20;;;;;;5067384;28;20461;-69
2022/05/05 13:20:46;;;;;;;28.88;18.85;;;25.20;50.50;;;;;;5065310;28;20415;-68
2022/05/05 13:23:12;;;;;;;22.63;16.48;;;25.10;50.60;;;;;;5064654;28;20411;-69
2022/05/05 13:25:38;;;;;;;27.65;18.05;;;25.00;50.80;;;;;;5062390;28;20495;-71
2022/05/05 13:28:04;;;;;;;31.05;19.42;;;25.00;50.40;;;;;;5066847;28;20403;-72
2022/05/05 13:30:29;;;;;;;30.60;18.70;;;25.00;50.30;;;;;;5066003;28;20535;-70
2022/05/05 13:32:55;;;;;;;27.85;19.10;;;25.00;49.50;;;;;;5067766;28;20875;-70
2022/05/05 13:35:21;;;;;;;31.63;17.70;;;24.70;49.40;;;;;;5062868;28;20423;-70
2022/05/05 13:37:47;;;;;;;27.00;18.92;;;24.70;50.70;;;;;;5067821;28;20498;-70
2022/05/05 13:40:13;;;;;;;30.30;18.88;;;24.60;50.30;;;;;;5063058;28;20411;-69
2022/05/05 13:42:39;;;;;;;27.80;17.42;;;24.50;50.80;;;;;;5059727;28;20401;-68
2022/05/05 13:45:06;;;;;;;25.58;16.63;;;24.50;51.20;;;;;;5056245;28;20418;-69
2022/05/05 13:47:32;;;;;;;23.50;16.40;;;24.60;51.40;;;;;;5067540;28;20411;-69
2022/05/05 13:49:57;;;;;;;29.45;19.85;;;24.60;51.30;;;;;;5063781;28;20440;-68
2022/05/05 13:52:23;;;;;;;27.00;17.83;;;24.60;51.20;;;;;;5068183;28;20502;-69
2022/05/05 13:54:49;;;;;;;30.63;18.47;;;24.50;51.20;;;;;;5066907;28;20919;-68
2022/05/05 13:57:14;;;;;;;25.03;16.83;;;24.60;52.00;;;;;;5067984;28;20410;-68
2022/05/05 13:59:44;;;;;;;24.42;16.35;;;24.60;50.20;;;;;;5069102;28;20431;-68
2022/05/05 14:02:10;;;;;;;22.33;15.03;;;24.50;50.80;;;;;;5067933;28;20478;-71
2022/05/05 14:04:35;;;;;;;;;;;24.40;51.50;;;;;;5069611;28;20999;-69
2022/05/05 14:07:02;;;;;;;;;;;24.50;51.80;;;;;;5068126;28;20292;-70
2022/05/05 14:12:15;;;;;;;;;;;24.50;51.30;;;;;;5070916;28;19919;-70
2022/05/05 14:14:41;;;;;;;;;;;24.50;51.80;;;;;;5070146;28;19952;-70
2022/05/05 14:17:06;;;;;;;;;;;24.60;51.30;;;;;;5065859;28;19962;-70
2022/05/05 14:19:32;;;;;;;;;;;24.60;51.20;;;;;;5071582;28;20365;-70
2022/05/05 14:22:00;;;;;;;;;;;24.60;50.40;;;;;;5065615;28;19908;-69
2022/05/05 14:24:26;;;;;;;;;;;24.60;50.80;;;;;;5070384;28;19912;-69
2022/05/05 14:26:53;;;;;;;;;;;24.60;50.80;;;;;;5064741;28;19924;-71
2022/05/05 14:29:19;;;;;;;;;;;24.60;51.10;;;;;;5068856;28;19916;-68
2022/05/05 14:31:44;;;;;;;;;;;24.60;50.20;;;;;;5065382;28;19960;-69
2022/05/05 14:34:10;;;;;;;;;;;24.50;50.60;;;;;;5062605;28;19919;-68
2022/05/05 14:36:36;;;;;;;;;;;24.50;50.30;;;;;;5061914;28;20379;-69
2022/05/05 14:39:01;;;;;;;;;;;24.50;50.70;;;;;;5069299;28;19947;-68